Observation data for Abernathy on 12/07/2018      Previous  Date       Current Mesonet Observations  Soil Data  Daily Summary Page  Observations in Plain Language
KARS 070600Z 03005KT M01/M03 A3029 RMK A01 T10071032  RH  083%=      5-min Rain = 0
KARS 070605Z 03005KT M01/M03 A3029 RMK A01 T10061032  RH  083%=      5-min Rain = 0
KARS 070610Z 02005KT M01/M03 A3029 RMK A01 T10071032  RH  083%=      5-min Rain = 0
KARS 070615Z 02005KT M01/M03 A3029 RMK A01 T10071032  RH  084%=      5-min Rain = 0
KARS 070620Z 02005KT M01/M03 A3029 RMK A01 T10071031  RH  084%=      5-min Rain = 0
KARS 070625Z 02005KT M01/M03 A3029 RMK A01 T10071031  RH  084%=      5-min Rain = 0
KARS 070630Z 02005KT M01/M03 A3029 RMK A01 T10061030  RH  084%=      5-min Rain = 0
KARS 070635Z 02006KT M01/M03 A3029 RMK A01 T10051030  RH  084%=      5-min Rain = 0
KARS 070640Z 02005KT M01/M03 A3029 RMK A01 T10051031  RH  083%=      5-min Rain = 0
KARS 070645Z 04004KT M00/M03 A303 RMK A01 T10041031  RH  082%=      5-min Rain = 0
KARS 070650Z 09001KT M00/M03 A3031 RMK A01 T10041032  RH  082%=      5-min Rain = 0
KARS 070655Z 05001KT M00/M03 A3031 RMK A01 T10041032  RH  082%=      5-min Rain = 0
KARS 070700Z 04002KT M00/M03 A3031 RMK A01 T10031032  RH  081%=      5-min Rain = 0
KARS 070705Z 04002KT M00/M03 A3031 RMK A01 T10031033  RH  081%=      5-min Rain = 0
KARS 070710Z 02003KT M00/M03 A3031 RMK A01 T10031033  RH  081%=      5-min Rain = 0
KARS 070715Z 02002KT M00/M03 A3031 RMK A01 T10031032  RH  081%=      5-min Rain = 0
KARS 070720Z 02001KT M00/M03 A3031 RMK A01 T10031032  RH  081%=      5-min Rain = 0
KARS 070725Z 01002KT M00/M03 A3031 RMK A01 T10021032  RH  081%=      5-min Rain = 0
KARS 070730Z 02002KT M00/M03 A3031 RMK A01 T10021032  RH  081%=      5-min Rain = 0
KARS 070735Z 01002KT M00/M03 A3031 RMK A01 T10021031  RH  081%=      5-min Rain = 0
KARS 070740Z 02001KT M00/M03 A3031 RMK A01 T10021032  RH  081%=      5-min Rain = 0
KARS 070745Z 02002KT M00/M03 A3031 RMK A01 T10021032  RH  081%=      5-min Rain = 0
KARS 070750Z 03002KT M00/M03 A3031 RMK A01 T10021032  RH  081%=      5-min Rain = 0
KARS 070755Z 04002KT M00/M03 A303 RMK A01 T10021032  RH  081%=      5-min Rain = 0
KARS 070800Z 03001KT M00/M03 A3031 RMK A01 T10021031  RH  081%=      5-min Rain = 0
KARS 070805Z 05001KT M00/M03 A3031 RMK A01 T10021031  RH  081%=      5-min Rain = 0
KARS 070810Z 02001KT M00/M03 A3031 RMK A01 T10021032  RH  081%=      5-min Rain = 0
KARS 070815Z 04002KT M00/M03 A303 RMK A01 T10021031  RH  081%=      5-min Rain = 0
KARS 070820Z 03002KT M00/M03 A3031 RMK A01 T10011031  RH  081%=      5-min Rain = 0
KARS 070825Z 01001KT M00/M03 A3031 RMK A01 T10011031  RH  081%=      5-min Rain = 0
KARS 070830Z 00002KT M00/M03 A3031 RMK A01 T10011030  RH  081%=      5-min Rain = 0
KARS 070835Z 33002KT M00/M03 A3032 RMK A01 T10011031  RH  081%=      5-min Rain = 0
KARS 070840Z 33002KT M00/M03 A3031 RMK A01 T10011031  RH  081%=      5-min Rain = 0
KARS 070845Z 30002KT M00/M03 A3032 RMK A01 T10011031  RH  081%=      5-min Rain = 0
KARS 070850Z 29003KT M00/M03 A3032 RMK A01 T10011031  RH  081%=      5-min Rain = 0
KARS 070855Z 32003KT M00/M03 A3032 RMK A01 T10011031  RH  081%=      5-min Rain = 0
KARS 070900Z 32003KT M00/M03 A3032 RMK A01 T10011031  RH  081%=      5-min Rain = 0
KARS 070905Z 32004KT 00/03 A3032 RMK A01 T00-00-31  RH  081%=      5-min Rain = 0
KARS 070910Z 34004KT 00/03 A3031 RMK A01 T00-00-30  RH  081%=      5-min Rain = 0
KARS 070915Z 34005KT 00/03 A3031 RMK A01 T00-00-31  RH  080%=      5-min Rain = 0
KARS 070920Z 00006KT 00/03 A303 RMK A01 T00000-30  RH  081%=      5-min Rain = 0
KARS 070925Z 02006KT 00/03 A3029 RMK A01 T00-00-30  RH  081%=      5-min Rain = 0
KARS 070930Z 04006KT M00/M03 A3029 RMK A01 T10011028  RH  082%=      5-min Rain = 0
KARS 070935Z 04005KT M00/M02 A3028 RMK A01 T10011024  RH  085%=      5-min Rain = 0
KARS 070940Z 03005KT M00/M02 A3028 RMK A01 T10021024  RH  086%=      5-min Rain = 0
KARS 070945Z 01005KT M00/M02 A3029 RMK A01 T10031024  RH  086%=      5-min Rain = 0
KARS 070950Z 02004KT M00/M02 A3029 RMK A01 T10031023  RH  087%=      5-min Rain = 0
KARS 070955Z 05004KT M00/M02 A3028 RMK A01 T10031022  RH  088%=      5-min Rain = 0
KARS 071000Z 07005KT M00/M02 A3028 RMK A01 T10031021  RH  088%=      5-min Rain = 0
KARS 071005Z 07005KT M00/M02 A3027 RMK A01 T10031021  RH  088%=      5-min Rain = 0
KARS 071010Z 08005KT M00/M02 A3027 RMK A01 T10031022  RH  088%=      5-min Rain = 0
KARS 071015Z 08005KT M00/M02 A3027 RMK A01 T10031023  RH  087%=      5-min Rain = 0
KARS 071020Z 08006KT M00/M02 A3027 RMK A01 T10031023  RH  087%=      5-min Rain = 0
KARS 071025Z 09007KT M00/M02 A3026 RMK A01 T10031023  RH  087%=      5-min Rain = 0
KARS 071030Z 06006KT M00/M02 A3025 RMK A01 T10031023  RH  087%=      5-min Rain = 0
KARS 071035Z 05007KT M00/M02 A3025 RMK A01 T10031023  RH  087%=      5-min Rain = 0
KARS 071040Z 06007KT M00/M02 A3024 RMK A01 T10031023  RH  087%=      5-min Rain = 0
KARS 071045Z 05008KT M00/M02 A3025 RMK A01 T10031022  RH  088%=      5-min Rain = 0
KARS 071050Z 05008KT M00/M02 A3024 RMK A01 T10031023  RH  087%=      5-min Rain = 0
KARS 071055Z 05008KT M00/M02 A3025 RMK A01 T10031023  RH  087%=      5-min Rain = 0
KARS 071100Z 03006KT M00/M02 A3026 RMK A01 T10031023  RH  087%=      5-min Rain = 0
KARS 071105Z 03004KT M00/M02 A3026 RMK A01 T10031022  RH  088%=      5-min Rain = 0
KARS 071110Z 03004KT M00/M02 A3027 RMK A01 T10031022  RH  088%=      5-min Rain = 0
KARS 071115Z 03003KT M00/M02 A3027 RMK A01 T10041022  RH  088%=      5-min Rain = 0
KARS 071120Z 01003KT M00/M02 A3027 RMK A01 T10041022  RH  088%=      5-min Rain = 0
KARS 071125Z 01003KT M00/M02 A3028 RMK A01 T10041022  RH  089%=      5-min Rain = 0
KARS 071130Z 01003KT M00/M02 A3028 RMK A01 T10041021  RH  089%=      5-min Rain = 0
KARS 071135Z 02003KT M01/M02 A3028 RMK A01 T10051021  RH  089%=      5-min Rain = 0
KARS 071140Z 05002KT M01/M02 A3028 RMK A01 T10051021  RH  089%=      5-min Rain = 0
KARS 071145Z 04000KT M01/M02 A3029 RMK A01 T10051022  RH  089%=      5-min Rain = 0
KARS 071150Z 13000KT M01/M02 A3029 RMK A01 T10051022  RH  089%=      5-min Rain = 0
KARS 071155Z 14001KT M01/M02 A3029 RMK A01 T10061022  RH  089%=      5-min Rain = 0
KARS 071200Z 14001KT M01/M02 A3029 RMK A01 T10051022  RH  089%=      5-min Rain = 0
KARS 071205Z 12001KT M01/M02 A3029 RMK A01 T10051021  RH  089%=      5-min Rain = 0
KARS 071210Z 08001KT M01/M02 A3029 RMK A01 T10051021  RH  089%=      5-min Rain = 0
KARS 071215Z 09002KT M00/M02 A3029 RMK A01 T10041021  RH  089%=      5-min Rain = 0
KARS 071220Z 09003KT M00/M02 A3028 RMK A01 T10031021  RH  088%=      5-min Rain = 0
KARS 071225Z 10004KT M00/M02 A3029 RMK A01 T10031022  RH  088%=      5-min Rain = 0
KARS 071230Z 10004KT M00/M02 A3028 RMK A01 T10021022  RH  087%=      5-min Rain = 0
KARS 071235Z 09005KT M00/M02 A3029 RMK A01 T10021024  RH  086%=      5-min Rain = 0
KARS 071240Z 09005KT M00/M02 A3028 RMK A01 T10021024  RH  086%=      5-min Rain = 0
KARS 071245Z 09006KT M00/M03 A3028 RMK A01 T10021025  RH  085%=      5-min Rain = 0
KARS 071250Z 07006KT M00/M03 A3028 RMK A01 T10031027  RH  084%=      5-min Rain = 0
KARS 071255Z 07006KT M00/M03 A3028 RMK A01 T10031027  RH  084%=      5-min Rain = 0
KARS 071300Z 08006KT M00/M03 A3028 RMK A01 T10021026  RH  085%=      5-min Rain = 0
KARS 071305Z 07006KT M00/M03 A3027 RMK A01 T10021025  RH  085%=      5-min Rain = 0
KARS 071310Z 07007KT M00/M03 A3027 RMK A01 T10021026  RH  085%=      5-min Rain = 0
KARS 071315Z 07006KT M00/M03 A3027 RMK A01 T10021026  RH  085%=      5-min Rain = 0
KARS 071320Z 08006KT M00/M03 A3027 RMK A01 T10021026  RH  084%=      5-min Rain = 0
KARS 071325Z 09008KT M00/M03 A3028 RMK A01 T10021027  RH  084%=      5-min Rain = 0
KARS 071330Z 10006KT M00/M03 A3029 RMK A01 T10021027  RH  083%=      5-min Rain = 0
KARS 071335Z 11005KT M00/M03 A303 RMK A01 T10011027  RH  083%=      5-min Rain = 0
KARS 071340Z 12005KT M00/M03 A3031 RMK A01 T10011027  RH  083%=      5-min Rain = 0
KARS 071345Z 13005KT 00/03 A3031 RMK A01 T00-00-27  RH  083%=      5-min Rain = 0
KARS 071350Z 11003KT 00/03 A3031 RMK A01 T00-00-27  RH  083%=      5-min Rain = 0
KARS 071355Z 11003KT 00/03 A3032 RMK A01 T00-00-27  RH  083%=      5-min Rain = 0
KARS 071400Z 12003KT 00/03 A3032 RMK A01 T00-00-27  RH  083%=      5-min Rain = 0
KARS 071405Z 13005KT 00/03 A3032 RMK A01 T00000-27  RH  083%=      5-min Rain = 0
KARS 071410Z 13005KT 00/03 A3031 RMK A01 T00000-26  RH  083%=      5-min Rain = 0
KARS 071415Z 13004KT 00/03 A3032 RMK A01 T00-00-25  RH  084%=      5-min Rain = 0
KARS 071420Z 10003KT M00/M02 A3032 RMK A01 T10011024  RH  085%=      5-min Rain = 0
KARS 071425Z 09003KT M00/M02 A3032 RMK A01 T10021023  RH  086%=      5-min Rain = 0
KARS 071430Z 09004KT M00/M02 A3032 RMK A01 T10021021  RH  088%=      5-min Rain = 0
KARS 071435Z 09004KT M00/M02 A3032 RMK A01 T10021020  RH  088%=      5-min Rain = 0
KARS 071440Z 09003KT M00/M02 A3032 RMK A01 T10021020  RH  089%=      5-min Rain = 0
KARS 071445Z 09001KT M00/M02 A3033 RMK A01 T10021021  RH  088%=      5-min Rain = 0
KARS 071450Z 02004KT M00/M02 A3033 RMK A01 T10021020  RH  088%=      5-min Rain = 0
KARS 071455Z 00005KT M00/M02 A3033 RMK A01 T10021019  RH  089%=      5-min Rain = 0
KARS 071500Z 02005KT M00/M02 A3033 RMK A01 T10021018  RH  090%=      5-min Rain = 0
KARS 071505Z 03004KT M00/M02 A3033 RMK A01 T10031019  RH  090%=      5-min Rain = 0
KARS 071510Z 02006KT M00/M02 A3033 RMK A01 T10031018  RH  090%=      5-min Rain = 0
KARS 071515Z 01007KT M00/M02 A3033 RMK A01 T10031018  RH  090%=      5-min Rain = 0
KARS 071520Z 01006KT M00/M02 A3033 RMK A01 T10021016  RH  091%=      5-min Rain = 0.01
KARS 071525Z 02006KT M00/M02 A3033 RMK A01 T10031016  RH  092%=      5-min Rain = 0.01
KARS 071530Z 02005KT M00/M02 A3033 RMK A01 T10041016  RH  092%=      5-min Rain = 0
KARS 071535Z 02005KT M00/M02 A3033 RMK A01 T10041017  RH  092%=      5-min Rain = 0
KARS 071540Z 03004KT M00/M02 A3033 RMK A01 T10041016  RH  092%=      5-min Rain = 0
KARS 071545Z 03005KT M00/M02 A3033 RMK A01 T10041016  RH  092%=      5-min Rain = 0
KARS 071550Z 02004KT M00/M02 A3034 RMK A01 T10041016  RH  092%=      5-min Rain = 0
KARS 071555Z 02004KT M00/M02 A3034 RMK A01 T10031015  RH  093%=      5-min Rain = 0.01
KARS 071600Z 03004KT M00/M01 A3034 RMK A01 T10041014  RH  093%=      5-min Rain = 0
KARS 071605Z 04006KT M00/M01 A3033 RMK A01 T10041014  RH  094%=      5-min Rain = 0
KARS 071610Z 06006KT M00/M01 A3032 RMK A01 T10041013  RH  095%=      5-min Rain = 0.01
KARS 071615Z 06006KT M00/M01 A3032 RMK A01 T10031011  RH  095%=      5-min Rain = 0
KARS 071620Z 06006KT M00/M01 A3032 RMK A01 T10041012  RH  095%=      5-min Rain = 0
KARS 071625Z 06005KT M00/M01 A3032 RMK A01 T10041011  RH  096%=      5-min Rain = 0
KARS 071630Z 05007KT M00/M01 A3032 RMK A01 T10041011  RH  096%=      5-min Rain = 0
KARS 071635Z 05007KT M00/M01 A3031 RMK A01 T10041011  RH  096%=      5-min Rain = 0
KARS 071640Z 05007KT M00/M01 A3031 RMK A01 T10041011  RH  096%=      5-min Rain = 0
KARS 071645Z 06005KT M00/M01 A3031 RMK A01 T10021009  RH  096%=      5-min Rain = 0
KARS 071650Z 05006KT M00/M01 A3032 RMK A01 T10031010  RH  096%=      5-min Rain = 0
KARS 071655Z 05007KT M00/M01 A3031 RMK A01 T10031010  RH  096%=      5-min Rain = 0
KARS 071700Z 06007KT M00/M01 A3031 RMK A01 T10031010  RH  096%=      5-min Rain = 0
KARS 071705Z 06007KT M00/M01 A3031 RMK A01 T10031010  RH  096%=      5-min Rain = 0
KARS 071710Z 07008KT M00/M01 A303 RMK A01 T10031009  RH  096%=      5-min Rain = 0
KARS 071715Z 07008KT M00/M01 A303 RMK A01 T10021009  RH  096%=      5-min Rain = 0
KARS 071720Z 07006KT M00/M01 A3031 RMK A01 T10011007  RH  097%=      5-min Rain = 0
KARS 071725Z 08006KT 00/01 A3031 RMK A01 T00-000-7  RH  097%=      5-min Rain = 0
KARS 071730Z 07007KT M00/M01 A3031 RMK A01 T10011007  RH  097%=      5-min Rain = 0
KARS 071735Z 07008KT M00/M01 A303 RMK A01 T10011006  RH  097%=      5-min Rain = 0
KARS 071740Z 07007KT 00/01 A303 RMK A01 T000000-5  RH  097%=      5-min Rain = 0
KARS 071745Z 07007KT M00/M01 A303 RMK A01 T10011007  RH  097%=      5-min Rain = 0.01
KARS 071750Z 06005KT M00/M01 A3031 RMK A01 T10011007  RH  097%=      5-min Rain = 0
KARS 071755Z 06005KT M00/M01 A303 RMK A01 T10011006  RH  097%=      5-min Rain = 0
KARS 071800Z 03004KT M00/M01 A3031 RMK A01 T10011006  RH  097%=      5-min Rain = 0
KARS 071805Z 04005KT M00/M01 A303 RMK A01 T10011006  RH  097%=      5-min Rain = 0
KARS 071810Z 06005KT 00/01 A303 RMK A01 T00-000-5  RH  097%=      5-min Rain = 0
KARS 071815Z 05004KT M00/M01 A303 RMK A01 T10011006  RH  097%=      5-min Rain = 0
KARS 071820Z 04006KT M00/M01 A3029 RMK A01 T10011005  RH  098%=      5-min Rain = 0
KARS 071825Z 05006KT 00/01 A3029 RMK A01 T00-000-5  RH  098%=      5-min Rain = 0
KARS 071830Z 06006KT 00/M00 A3028 RMK A01 T00011003  RH  098%=      5-min Rain = 0
KARS 071835Z 07007KT 00/M00 A3028 RMK A01 T00031002  RH  098%=      5-min Rain = 0
KARS 071840Z 06007KT 00/M00 A3028 RMK A01 T00031002  RH  098%=      5-min Rain = 0
KARS 071845Z 07007KT 00/00 A3028 RMK A01 T000400-0  RH  098%=      5-min Rain = 0
KARS 071850Z 07007KT 00/M00 A3028 RMK A01 T00031002  RH  098%=      5-min Rain = 0
KARS 071855Z 08008KT 00/M00 A3027 RMK A01 T00021003  RH  098%=      5-min Rain = 0
KARS 071900Z 08007KT 00/M00 A3027 RMK A01 T00021002  RH  098%=      5-min Rain = 0
KARS 071905Z 07006KT 00/M00 A3027 RMK A01 T00021002  RH  098%=      5-min Rain = 0
KARS 071910Z 07007KT 00/M00 A3027 RMK A01 T00021002  RH  098%=      5-min Rain = 0
KARS 071915Z 07008KT 00/M00 A3027 RMK A01 T00011002  RH  099%=      5-min Rain = 0
KARS 071920Z 06005KT 00/M00 A3027 RMK A01 T00021002  RH  099%=      5-min Rain = 0
KARS 071925Z 07007KT 00/M00 A3027 RMK A01 T00011002  RH  098%=      5-min Rain = 0
KARS 071930Z 08007KT 00/M00 A3027 RMK A01 T00011003  RH  098%=      5-min Rain = 0
KARS 071935Z 07007KT 00/M00 A3027 RMK A01 T00011003  RH  099%=      5-min Rain = 0
KARS 071940Z 08008KT 00/00 A3026 RMK A01 T000000-3  RH  099%=      5-min Rain = 0
KARS 071945Z 07007KT 00/M00 A3026 RMK A01 T00011002  RH  099%=      5-min Rain = 0
KARS 071950Z 07006KT 00/M00 A3026 RMK A01 T00011002  RH  099%=      5-min Rain = 0
KARS 071955Z 06006KT 00/M00 A3027 RMK A01 T00011002  RH  099%=      5-min Rain = 0
KARS 072000Z 06006KT 00/M00 A3027 RMK A01 T00011002  RH  099%=      5-min Rain = 0
KARS 072005Z 06007KT 00/M00 A3027 RMK A01 T00011002  RH  099%=      5-min Rain = 0
KARS 072010Z 06007KT 00/00 A3026 RMK A01 T00-000-3  RH  099%=      5-min Rain = 0
KARS 072015Z 05008KT M00/M00 A3026 RMK A01 T10011004  RH  099%=      5-min Rain = 0
KARS 072020Z 05008KT M00/M01 A3026 RMK A01 T10021005  RH  099%=      5-min Rain = 0
KARS 072025Z 05008KT M00/M01 A3026 RMK A01 T10021005  RH  099%=      5-min Rain = 0
KARS 072030Z 05007KT M00/M01 A3026 RMK A01 T10031005  RH  100%=      5-min Rain = 0
KARS 072035Z 05008KT M00/M01 A3026 RMK A01 T10041006  RH  100%=      5-min Rain = 0
KARS 072040Z 05008KT M00/M01 A3025 RMK A01 T10041005  RH  100%=      5-min Rain = 0
KARS 072045Z 07009KT M00/M01 A3024 RMK A01 T10031005  RH  100%=      5-min Rain = 0
KARS 072050Z 06008KT M00/M01 A3025 RMK A01 T10041006  RH  100%=      5-min Rain = 0
KARS 072055Z 05008KT M01/M01 A3025 RMK A01 T10051006  RH  100%=      5-min Rain = 0
KARS 072100Z 05007KT M01/M01 A3025 RMK A01 T10051007  RH  100%=      5-min Rain = 0
KARS 072105Z 05008KT M00/M01 A3024 RMK A01 T10041006  RH  100%=      5-min Rain = 0
KARS 072110Z 06009KT M00/M01 A3024 RMK A01 T10041006  RH  100%=      5-min Rain = 0
KARS 072115Z 05008KT M00/M01 A3024 RMK A01 T10031005  RH  100%=      5-min Rain = 0
KARS 072120Z 05009KT M00/M01 A3024 RMK A01 T10041006  RH  099%=      5-min Rain = 0
KARS 072125Z 04008KT M00/M01 A3024 RMK A01 T10041006  RH  100%=      5-min Rain = 0
KARS 072130Z 04008KT M00/M01 A3025 RMK A01 T10041006  RH  100%=      5-min Rain = 0
KARS 072135Z 05009KT M01/M01 A3025 RMK A01 T10051007  RH  100%=      5-min Rain = 0
KARS 072140Z 05008KT M01/M01 A3025 RMK A01 T10051006  RH  100%=      5-min Rain = 0
KARS 072145Z 04008KT M01/M01 A3025 RMK A01 T10051007  RH  100%=      5-min Rain = 0
KARS 072150Z 03008KT M01/M01 A3025 RMK A01 T10051007  RH  100%=      5-min Rain = 0
KARS 072155Z 03008KT M00/M01 A3025 RMK A01 T10041006  RH  100%=      5-min Rain = 0
KARS 072200Z 04008KT M00/M01 A3025 RMK A01 T10031006  RH  099%=      5-min Rain = 0
KARS 072205Z 03008KT M00/M01 A3025 RMK A01 T10021005  RH  099%=      5-min Rain = 0
KARS 072210Z 04009KT M00/M01 A3024 RMK A01 T10021006  RH  099%=      5-min Rain = 0
KARS 072215Z 04008KT M00/M01 A3024 RMK A01 T10021005  RH  099%=      5-min Rain = 0
KARS 072220Z 03008KT M00/M01 A3024 RMK A01 T10021006  RH  098%=      5-min Rain = 0
KARS 072225Z 04009KT M00/M01 A3024 RMK A01 T10021006  RH  098%=      5-min Rain = 0
KARS 072230Z 04009KT M00/M01 A3024 RMK A01 T10021006  RH  098%=      5-min Rain = 0
KARS 072235Z 04009KT M00/M01 A3024 RMK A01 T10021006  RH  098%=      5-min Rain = 0
KARS 072240Z 04008KT M00/M01 A3025 RMK A01 T10011005  RH  098%=      5-min Rain = 0
KARS 072245Z 04008KT M00/M01 A3024 RMK A01 T10011005  RH  098%=      5-min Rain = 0
KARS 072250Z 03008KT M00/M01 A3025 RMK A01 T10011005  RH  098%=      5-min Rain = 0
KARS 072255Z 04008KT M00/M01 A3025 RMK A01 T10011005  RH  098%=      5-min Rain = 0
KARS 072300Z 04008KT M00/M01 A3026 RMK A01 T10011005  RH  098%=      5-min Rain = 0
KARS 072305Z 04008KT M00/M01 A3026 RMK A01 T10011006  RH  098%=      5-min Rain = 0
KARS 072310Z 04007KT M00/M01 A3026 RMK A01 T10011006  RH  098%=      5-min Rain = 0
KARS 072315Z 04008KT M00/M01 A3026 RMK A01 T10011006  RH  098%=      5-min Rain = 0
KARS 072320Z 04007KT M00/M01 A3026 RMK A01 T10011005  RH  098%=      5-min Rain = 0
KARS 072325Z 03008KT 00/01 A3025 RMK A01 T00-000-5  RH  098%=      5-min Rain = 0
KARS 072330Z 04008KT 00/01 A3025 RMK A01 T00-000-5  RH  098%=      5-min Rain = 0
KARS 072335Z 04008KT M00/M01 A3025 RMK A01 T10011005  RH  098%=      5-min Rain = 0
KARS 072340Z 04009KT M00/M01 A3025 RMK A01 T10011005  RH  098%=      5-min Rain = 0
KARS 072345Z 03007KT 00/01 A3025 RMK A01 T00-000-5  RH  098%=      5-min Rain = 0
KARS 072350Z 03009KT 00/01 A3024 RMK A01 T00-000-5  RH  098%=      5-min Rain = 0
KARS 072355Z 04009KT M00/M01 A3024 RMK A01 T10011006  RH  098%=      5-min Rain = 0
KARS 080000Z 04009KT M00/M01 A3024 RMK A01 T10011005  RH  098%=      5-min Rain = 0
KARS 080005Z 04008KT M00/M01 A3024 RMK A01 T10011005  RH  098%=      5-min Rain = 0
KARS 080010Z 04007KT 00/00 A3024 RMK A01 T00-000-4  RH  098%=      5-min Rain = 0
KARS 080015Z 04009KT M00/M00 A3024 RMK A01 T10011004  RH  098%=      5-min Rain = 0
KARS 080020Z 04009KT M00/M01 A3024 RMK A01 T10011005  RH  099%=      5-min Rain = 0
KARS 080025Z 04009KT M00/M00 A3024 RMK A01 T10011004  RH  099%=      5-min Rain = 0
KARS 080030Z 04009KT M00/M00 A3024 RMK A01 T10011004  RH  099%=      5-min Rain = 0
KARS 080035Z 04009KT M00/M00 A3024 RMK A01 T10021004  RH  099%=      5-min Rain = 0
KARS 080040Z 04009KT M00/M00 A3024 RMK A01 T10021004  RH  099%=      5-min Rain = 0
KARS 080045Z 04009KT M00/M00 A3024 RMK A01 T10021004  RH  100%=      5-min Rain = 0
KARS 080050Z 04010KT M00/M00 A3025 RMK A01 T10021004  RH  100%=      5-min Rain = 0
KARS 080055Z 04009KT M00/M00 A3026 RMK A01 T10021003  RH  100%=      5-min Rain = 0
KARS 080100Z 04008KT M00/M00 A3026 RMK A01 T10021003  RH  100%=      5-min Rain = 0
KARS 080105Z 05008KT M00/M00 A3027 RMK A01 T10011003  RH  100%=      5-min Rain = 0
KARS 080110Z 05009KT M00/M00 A3027 RMK A01 T10011003  RH  100%=      5-min Rain = 0
KARS 080115Z 05008G13KT M00/M00 A3027 RMK A01 T10011003  RH  100%=      5-min Rain = 0
KARS 080120Z 05010KT M00/M00 A3027 RMK A01 T10011003  RH  100%=      5-min Rain = 0
KARS 080125Z 06009KT M00/M00 A3028 RMK A01 T10011003  RH  100%=      5-min Rain = 0
KARS 080130Z 06009KT M00/M00 A3028 RMK A01 T10011003  RH  100%=      5-min Rain = 0
KARS 080135Z 06009KT M00/M00 A3028 RMK A01 T10021003  RH  100%=      5-min Rain = 0
KARS 080140Z 06009KT M00/M00 A3027 RMK A01 T10011003  RH  100%=      5-min Rain = 0
KARS 080145Z 06010KT M00/M00 A3028 RMK A01 T10021003  RH  100%=      5-min Rain = 0
KARS 080150Z 06008KT M00/M00 A3028 RMK A01 T10011003  RH  100%=      5-min Rain = 0
KARS 080155Z 06009KT M00/M00 A3028 RMK A01 T10021003  RH  100%=      5-min Rain = 0
KARS 080200Z 06008KT M00/M00 A3027 RMK A01 T10021003  RH  100%=      5-min Rain = 0
KARS 080205Z 06008KT M00/M00 A3028 RMK A01 T10021003  RH  100%=      5-min Rain = 0
KARS 080210Z 05007KT M00/M00 A3028 RMK A01 T10021003  RH  100%=      5-min Rain = 0
KARS 080215Z 05008KT M00/M00 A3029 RMK A01 T10021004  RH  100%=      5-min Rain = 0
KARS 080220Z 05007KT M00/M00 A3029 RMK A01 T10021004  RH  100%=      5-min Rain = 0
KARS 080225Z 05010KT M00/M01 A3029 RMK A01 T10031005  RH  100%=      5-min Rain = 0
KARS 080230Z 05008KT M00/M00 A3029 RMK A01 T10031004  RH  100%=      5-min Rain = 0
KARS 080235Z 05009KT M00/M01 A3029 RMK A01 T10031005  RH  100%=      5-min Rain = 0
KARS 080240Z 06010KT M00/M01 A3029 RMK A01 T10041005  RH  100%=      5-min Rain = 0
KARS 080245Z 05010KT M00/M01 A3029 RMK A01 T10041006  RH  100%=      5-min Rain = 0
KARS 080250Z 05008KT M00/M01 A3029 RMK A01 T10041006  RH  100%=      5-min Rain = 0
KARS 080255Z 05007KT M00/M01 A303 RMK A01 T10041005  RH  100%=      5-min Rain = 0
KARS 080300Z 05007KT M00/M00 A3029 RMK A01 T10031004  RH  100%=      5-min Rain = 0
KARS 080305Z 05009KT M00/M01 A3029 RMK A01 T10041005  RH  100%=      5-min Rain = 0
KARS 080310Z 05009KT M00/M01 A3029 RMK A01 T10041006  RH  100%=      5-min Rain = 0.02
KARS 080315Z 05008KT M00/M01 A3029 RMK A01 T10041006  RH  100%=      5-min Rain = 0
KARS 080320Z 04009KT M00/M01 A3029 RMK A01 T10041006  RH  100%=      5-min Rain = 0
KARS 080325Z 05008KT M01/M01 A3029 RMK A01 T10051006  RH  100%=      5-min Rain = 0
KARS 080330Z 05008KT M01/M01 A3029 RMK A01 T10051006  RH  100%=      5-min Rain = 0
KARS 080335Z 05008KT M01/M01 A3029 RMK A01 T10051006  RH  100%=      5-min Rain = 0.01
KARS 080340Z 05008KT M01/M01 A3029 RMK A01 T10051007  RH  100%=      5-min Rain = 0
KARS 080345Z 05008KT M01/M01 A3029 RMK A01 T10051007  RH  100%=      5-min Rain = 0
KARS 080350Z 06006KT M01/M01 A3029 RMK A01 T10051007  RH  100%=      5-min Rain = 0
KARS 080355Z 06007KT M01/M01 A3029 RMK A01 T10051007  RH  100%=      5-min Rain = 0.01
KARS 080400Z 06007KT M01/M01 A3029 RMK A01 T10061007  RH  100%=      5-min Rain = 0
KARS 080405Z 06006KT M01/M01 A3029 RMK A01 T10061007  RH  100%=      5-min Rain = 0
KARS 080410Z 06006KT M01/M01 A3028 RMK A01 T10061007  RH  100%=      5-min Rain = 0.01
KARS 080415Z 06005KT M01/M01 A3028 RMK A01 T10061008  RH  100%=      5-min Rain = 0
KARS 080420Z 05005KT M01/M01 A3028 RMK A01 T10061008  RH  100%=      5-min Rain = 0.01
KARS 080425Z 05005KT M01/M01 A3028 RMK A01 T10061008  RH  100%=      5-min Rain = 0.01
KARS 080430Z 06005KT M01/M01 A3028 RMK A01 T10061008  RH  100%=      5-min Rain = 0
KARS 080435Z 05004KT M01/M01 A3028 RMK A01 T10061008  RH  100%=      5-min Rain = 0.01
KARS 080440Z 05004KT M01/M01 A3028 RMK A01 T10061008  RH  100%=      5-min Rain = 0
KARS 080445Z 04003KT M01/M01 A3028 RMK A01 T10061008  RH  100%=      5-min Rain = 0
KARS 080450Z 04004KT M01/M01 A3028 RMK A01 T10071008  RH  100%=      5-min Rain = 0
KARS 080455Z 04003KT M01/M01 A3028 RMK A01 T10071009  RH  100%=      5-min Rain = 0
KARS 080500Z 04003KT M01/M01 A3029 RMK A01 T10071009  RH  100%=      5-min Rain = 0
KARS 080505Z 04003KT M01/M01 A3029 RMK A01 T10071008  RH  100%=      5-min Rain = 0
KARS 080510Z 04003KT M01/M01 A3029 RMK A01 T10071008  RH  100%=      5-min Rain = 0.01
KARS 080515Z 04004KT M01/M01 A3029 RMK A01 T10071008  RH  100%=      5-min Rain = 0
KARS 080520Z 04003KT M01/M01 A3029 RMK A01 T10071008  RH  100%=      5-min Rain = 0
KARS 080525Z 04003KT M01/M01 A3029 RMK A01 T10071008  RH  100%=      5-min Rain = 0
KARS 080530Z 03004KT M01/M01 A3029 RMK A01 T10071009  RH  100%=      5-min Rain = 0
KARS 080535Z 03003KT M01/M01 A3029 RMK A01 T10071008  RH  100%=      5-min Rain = 0
KARS 080540Z 04003KT M01/M01 A3029 RMK A01 T10071009  RH  100%=      5-min Rain = 0
KARS 080545Z 04004KT M01/M01 A3029 RMK A01 T10071009  RH  100%=      5-min Rain = 0
KARS 080550Z 04004KT M01/M01 A3029 RMK A01 T10081009  RH  100%=      5-min Rain = 0
KARS 080555Z 04004KT M01/M01 A3029 RMK A01 T10081009  RH  100%=      5-min Rain = 0

Page generated in 0.0143 seconds.